Time;durP1;ratioP1;P1;durP2;ratioP2;P2;SDS_P1;SDS_P2;PMS_P1;PMS_P2;Temp;Humidity;BMP_temperature;BMP_pressure;BME280_temperature;BME280_humidity;BME280_pressure;Samples;Min_cycle;Max_cycle;Signal;HPM_P1;HPM_P2
2023/12/17 00:02:25;;;;;;;15.23;9.80;;;;;;;;;;4959857;28;20180;-84
2023/12/17 00:04:51;;;;;;;15.53;9.93;;;;;;;;;;4976020;28;20199;-84
2023/12/17 00:07:20;;;;;;;17.63;9.30;;;;;;;;;;4958395;28;20251;-84
2023/12/17 00:09:47;;;;;;;16.07;9.77;;;;;;;;;;4961441;28;20226;-84
2023/12/17 00:12:13;;;;;;;14.03;9.40;;;;;;;;;;4983159;28;20188;-84
2023/12/17 00:14:41;;;;;;;13.93;9.37;;;;;;;;;;4977292;28;20249;-84
2023/12/17 00:17:08;;;;;;;14.47;8.90;;;;;;;;;;4979380;28;20235;-84
2023/12/17 00:19:34;;;;;;;12.60;8.73;;;;;;;;;;4980657;28;20200;-85
2023/12/17 00:22:00;;;;;;;13.90;8.90;;;;;;;;;;4992315;28;20187;-84
2023/12/17 00:24:26;;;;;;;13.20;8.47;;;;;;;;;;4993591;28;20209;-84
2023/12/17 00:26:54;;;;;;;13.97;8.53;;;;;;;;;;4991570;28;20224;-84
2023/12/17 00:29:21;;;;;;;15.57;9.20;;;;;;;;;;4986392;28;20228;-84
2023/12/17 00:31:47;;;;;;;14.10;9.20;;;;;;;;;;4992153;28;20183;-84
2023/12/17 00:34:13;;;;;;;16.60;9.93;;;;;;;;;;4958525;28;20674;-84
2023/12/17 00:36:39;;;;;;;16.27;9.70;;;;;;;;;;4965100;28;20411;-84
2023/12/17 00:39:05;;;;;;;17.33;10.53;;;;;;;;;;4973252;28;20196;-84
2023/12/17 00:41:33;;;;;;;15.87;10.10;;;;;;;;;;4990345;28;20175;-84
2023/12/17 00:43:59;;;;;;;15.80;9.80;;;;;;;;;;4989505;28;20194;-84
2023/12/17 00:46:25;;;;;;;15.97;10.00;;;;;;;;;;4973147;28;20179;-84
2023/12/17 00:48:52;;;;;;;15.70;10.13;;;;;;;;;;4973380;28;20191;-84
2023/12/17 00:51:18;;;;;;;15.10;10.23;;;;;;;;;;4989570;28;20270;-84
2023/12/17 00:53:44;;;;;;;20.20;11.23;;;;;;;;;;4958449;28;20215;-85
2023/12/17 00:56:10;;;;;;;19.40;11.80;;;;;;;;;;4989386;28;20199;-83
2023/12/17 00:58:37;;;;;;;17.77;11.30;;;;;;;;;;4960415;28;20215;-84
2023/12/17 01:01:03;;;;;;;16.00;10.87;;;;;;;;;;4970477;28;20518;-84
2023/12/17 01:03:29;;;;;;;15.27;10.97;;;;;;;;;;4986609;28;20179;-84
2023/12/17 01:05:55;;;;;;;22.53;11.33;;;;;;;;;;4976636;28;20558;-83
2023/12/17 01:08:21;;;;;;;16.60;11.50;;;;;;;;;;4959066;28;20195;-84
2023/12/17 01:10:47;;;;;;;16.53;11.10;;;;;;;;;;4973230;28;20211;-84
2023/12/17 01:13:13;;;;;;;20.10;11.40;;;;;;;;;;4972149;28;20199;-84
2023/12/17 01:15:40;;;;;;;17.77;11.27;;;;;;;;;;4993226;28;20195;-81
2023/12/17 01:18:06;;;;;;;18.23;11.77;;;;;;;;;;4974567;28;20235;-84
2023/12/17 01:20:32;;;;;;;16.80;11.57;;;;;;;;;;4958874;28;20676;-83
2023/12/17 01:22:58;;;;;;;20.63;12.00;;;;;;;;;;4984347;28;20218;-84
2023/12/17 01:25:24;;;;;;;17.13;10.90;;;;;;;;;;4973221;28;20190;-84
2023/12/17 01:27:51;;;;;;;16.60;11.33;;;;;;;;;;4977842;28;20195;-84
2023/12/17 01:30:17;;;;;;;18.73;11.40;;;;;;;;;;4976395;28;20208;-83
2023/12/17 01:32:43;;;;;;;19.23;12.37;;;;;;;;;;4995614;28;20282;-84
2023/12/17 01:35:10;;;;;;;17.27;11.77;;;;;;;;;;4996943;28;20191;-84
2023/12/17 01:37:36;;;;;;;16.83;11.40;;;;;;;;;;4977164;28;20207;-84
2023/12/17 01:40:02;;;;;;;17.00;12.03;;;;;;;;;;4974292;28;20206;-84
2023/12/17 01:42:28;;;;;;;17.27;11.80;;;;;;;;;;4977650;28;20180;-84
2023/12/17 01:44:54;;;;;;;16.50;11.10;;;;;;;;;;4977940;28;20238;-84
2023/12/17 01:47:21;;;;;;;22.50;13.23;;;;;;;;;;4994697;28;20196;-83
2023/12/17 01:49:47;;;;;;;17.10;11.30;;;;;;;;;;4993393;28;20593;-84
2023/12/17 01:52:13;;;;;;;19.77;11.87;;;;;;;;;;4979407;28;20199;-84
2023/12/17 01:54:39;;;;;;;17.20;11.63;;;;;;;;;;4961271;28;20608;-83
2023/12/17 01:57:06;;;;;;;15.13;10.80;;;;;;;;;;4990944;28;20231;-83
2023/12/17 01:59:33;;;;;;;17.67;12.30;;;;;;;;;;4990084;28;20376;-84
2023/12/17 02:02:00;;;;;;;16.63;11.10;;;;;;;;;;4981383;28;20234;-84
2023/12/17 02:04:26;;;;;;;15.77;11.63;;;;;;;;;;4977469;28;20190;-84
2023/12/17 02:06:52;;;;;;;17.30;11.60;;;;;;;;;;4977926;28;20219;-83
2023/12/17 02:09:18;;;;;;;17.30;11.50;;;;;;;;;;4994833;28;20506;-83
2023/12/17 02:11:44;;;;;;;19.30;11.77;;;;;;;;;;4997440;28;20199;-84
2023/12/17 02:14:10;;;;;;;17.70;11.83;;;;;;;;;;4991946;28;20222;-84
2023/12/17 02:16:36;;;;;;;19.33;12.33;;;;;;;;;;4986768;28;20211;-84
2023/12/17 02:19:03;;;;;;;17.60;11.43;;;;;;;;;;4983452;28;20242;-83
2023/12/17 02:21:29;;;;;;;21.77;12.27;;;;;;;;;;4982599;28;20188;-84
2023/12/17 02:23:55;;;;;;;18.67;11.67;;;;;;;;;;4962798;28;20188;-84
2023/12/17 02:26:21;;;;;;;18.47;11.70;;;;;;;;;;4988984;28;20407;-83
2023/12/17 02:28:47;;;;;;;19.00;12.70;;;;;;;;;;4997773;28;20204;-83
2023/12/17 02:31:14;;;;;;;19.13;13.03;;;;;;;;;;4989535;28;20218;-83
2023/12/17 02:33:40;;;;;;;19.77;13.23;;;;;;;;;;4980395;28;20513;-83
2023/12/17 02:36:06;;;;;;;21.07;13.43;;;;;;;;;;4980982;28;20214;-85
2023/12/17 02:38:32;;;;;;;22.20;12.57;;;;;;;;;;4968018;28;20268;-84
2023/12/17 02:40:58;;;;;;;18.80;13.23;;;;;;;;;;4979880;28;20234;-83
2023/12/17 02:43:24;;;;;;;16.63;11.90;;;;;;;;;;4973261;28;20249;-84
2023/12/17 02:45:50;;;;;;;17.60;12.00;;;;;;;;;;4993512;28;20242;-83
2023/12/17 02:48:16;;;;;;;21.20;12.90;;;;;;;;;;4984907;28;20620;-84
2023/12/17 02:50:43;;;;;;;19.27;12.67;;;;;;;;;;4980058;28;20207;-84
2023/12/17 02:53:09;;;;;;;18.43;12.60;;;;;;;;;;4993436;28;20188;-85
2023/12/17 02:55:35;;;;;;;18.27;12.93;;;;;;;;;;4978855;28;20648;-83
2023/12/17 02:58:04;;;;;;;17.93;12.50;;;;;;;;;;4992943;28;20262;-84
2023/12/17 03:00:30;;;;;;;19.53;12.13;;;;;;;;;;4978733;28;20286;-84
2023/12/17 03:02:57;;;;;;;24.83;13.23;;;;;;;;;;4966175;28;20234;-84
2023/12/17 03:05:23;;;;;;;18.87;11.93;;;;;;;;;;4978438;28;20550;-84
2023/12/17 03:07:49;;;;;;;16.03;11.10;;;;;;;;;;4982428;28;20188;-84
2023/12/17 03:10:15;;;;;;;15.47;11.70;;;;;;;;;;4977133;28;20211;-84
2023/12/17 03:12:42;;;;;;;18.43;12.30;;;;;;;;;;4966275;28;20242;-84
2023/12/17 03:15:08;;;;;;;16.63;11.70;;;;;;;;;;4991919;28;20200;-84
2023/12/17 03:17:38;;;;;;;15.93;10.50;;;;;;;;;;4977255;28;20218;-84
2023/12/17 03:20:04;;;;;;;17.60;11.60;;;;;;;;;;4974726;28;20254;-84
2023/12/17 03:22:31;;;;;;;19.00;12.10;;;;;;;;;;4972121;28;20184;-84
2023/12/17 03:24:58;;;;;;;19.07;12.67;;;;;;;;;;4994587;28;20275;-83
2023/12/17 03:27:25;;;;;;;21.07;12.20;;;;;;;;;;4989875;28;20202;-84
2023/12/17 03:29:51;;;;;;;18.63;12.27;;;;;;;;;;4989785;28;20708;-84
2023/12/17 03:32:18;;;;;;;17.00;11.33;;;;;;;;;;4988742;28;20367;-83
2023/12/17 03:34:44;;;;;;;20.10;12.47;;;;;;;;;;4977143;28;20751;-84
2023/12/17 03:37:10;;;;;;;16.37;11.00;;;;;;;;;;4987513;28;20231;-84
2023/12/17 03:39:36;;;;;;;18.80;10.90;;;;;;;;;;4976872;28;20564;-85
2023/12/17 03:42:02;;;;;;;16.03;11.20;;;;;;;;;;4978045;28;20190;-84
2023/12/17 03:44:29;;;;;;;16.93;11.23;;;;;;;;;;4972806;28;20279;-85
2023/12/17 03:46:55;;;;;;;15.53;10.60;;;;;;;;;;4958989;28;20180;-85
2023/12/17 03:49:22;;;;;;;19.10;11.67;;;;;;;;;;4976778;28;20208;-84
2023/12/17 03:51:48;;;;;;;18.93;11.40;;;;;;;;;;4981066;28;20190;-84
2023/12/17 03:54:14;;;;;;;17.23;10.80;;;;;;;;;;4982181;28;20192;-84
2023/12/17 03:56:45;;;;;;;13.90;9.87;;;;;;;;;;4989834;28;20188;-83
2023/12/17 03:59:12;;;;;;;14.53;9.83;;;;;;;;;;4987882;28;20215;-84
2023/12/17 04:01:44;;;;;;;15.37;9.93;;;;;;;;;;4976217;28;20187;-84
2023/12/17 04:04:10;;;;;;;15.33;10.50;;;;;;;;;;4990136;28;20184;-84
2023/12/17 04:06:37;;;;;;;16.57;9.83;;;;;;;;;;4972181;28;20204;-85
2023/12/17 04:09:03;;;;;;;18.30;10.70;;;;;;;;;;4978868;28;20190;-84
2023/12/17 04:11:30;;;;;;;17.87;10.50;;;;;;;;;;4982723;28;20234;-84
2023/12/17 04:13:56;;;;;;;16.10;10.37;;;;;;;;;;4976672;28;20238;-84
2023/12/17 04:16:22;;;;;;;15.47;10.63;;;;;;;;;;4975869;28;20198;-84
2023/12/17 04:18:48;;;;;;;16.63;10.37;;;;;;;;;;4973124;28;20204;-84
2023/12/17 04:21:15;;;;;;;14.87;10.23;;;;;;;;;;4975453;28;20212;-84
2023/12/17 04:23:41;;;;;;;15.30;9.33;;;;;;;;;;4991489;28;20188;-85
2023/12/17 04:26:07;;;;;;;12.57;8.60;;;;;;;;;;4975548;28;20271;-84
2023/12/17 04:28:33;;;;;;;13.13;9.70;;;;;;;;;;4992127;28;20274;-84
2023/12/17 04:30:59;;;;;;;16.63;10.53;;;;;;;;;;4986654;28;20234;-84
2023/12/17 04:33:25;;;;;;;15.70;10.93;;;;;;;;;;4985442;28;20185;-84
2023/12/17 04:35:51;;;;;;;16.40;9.53;;;;;;;;;;4973967;28;20675;-84
2023/12/17 04:38:18;;;;;;;15.90;9.80;;;;;;;;;;4988199;28;20266;-84
2023/12/17 04:40:46;;;;;;;15.30;9.67;;;;;;;;;;4959942;28;20296;-84
2023/12/17 04:43:13;;;;;;;12.17;8.40;;;;;;;;;;4970748;28;20204;-85
2023/12/17 04:45:39;;;;;;;13.80;8.90;;;;;;;;;;4986871;28;20188;-85
2023/12/17 04:48:05;;;;;;;13.93;8.67;;;;;;;;;;4970126;28;20194;-84
2023/12/17 04:50:31;;;;;;;11.20;8.00;;;;;;;;;;4969663;28;20215;-83
2023/12/17 04:52:57;;;;;;;14.67;8.23;;;;;;;;;;4972870;28;20206;-84
2023/12/17 04:55:23;;;;;;;14.23;8.30;;;;;;;;;;4952488;28;20200;-83
2023/12/17 04:57:49;;;;;;;12.07;7.67;;;;;;;;;;4985348;28;20698;-86
2023/12/17 05:00:16;;;;;;;14.00;8.17;;;;;;;;;;4955984;28;20207;-84
2023/12/17 05:02:42;;;;;;;11.87;7.67;;;;;;;;;;4987373;28;20196;-84
2023/12/17 05:05:08;;;;;;;9.50;7.53;;;;;;;;;;4990811;28;20251;-84
2023/12/17 05:07:34;;;;;;;12.57;9.43;;;;;;;;;;4972064;28;20206;-84
2023/12/17 05:10:00;;;;;;;14.17;9.83;;;;;;;;;;4993802;28;20231;-84
2023/12/17 05:12:27;;;;;;;16.97;11.47;;;;;;;;;;4969965;28;20195;-83
2023/12/17 05:14:53;;;;;;;16.10;10.40;;;;;;;;;;4956581;28;20238;-84
2023/12/17 05:17:19;;;;;;;13.43;9.77;;;;;;;;;;4972202;28;20210;-84
2023/12/17 05:19:45;;;;;;;14.23;9.97;;;;;;;;;;4976063;28;20347;-84
2023/12/17 05:22:12;;;;;;;14.37;10.10;;;;;;;;;;4992680;28;20384;-83
2023/12/17 05:24:38;;;;;;;15.10;10.10;;;;;;;;;;4977492;28;20184;-85
2023/12/17 05:27:04;;;;;;;11.93;8.40;;;;;;;;;;4989814;28;20233;-86
2023/12/17 05:29:30;;;;;;;12.77;8.73;;;;;;;;;;4991531;28;20213;-84
2023/12/17 05:31:56;;;;;;;14.17;9.50;;;;;;;;;;4998256;28;20191;-83
2023/12/17 05:34:23;;;;;;;13.20;8.90;;;;;;;;;;4985033;28;20640;-84
2023/12/17 05:36:50;;;;;;;12.40;8.80;;;;;;;;;;4998282;28;20194;-84
2023/12/17 05:39:16;;;;;;;14.00;9.60;;;;;;;;;;5013580;28;20676;-83
2023/12/17 05:41:42;;;;;;;14.30;10.48;;;;;;;;;;4994477;28;20444;-83
2023/12/17 05:44:08;;;;;;;13.77;9.27;;;;;;;;;;4998703;28;20184;-83
2023/12/17 05:46:34;;;;;;;13.93;9.50;;;;;;;;;;4983933;28;20183;-84
2023/12/17 05:49:01;;;;;;;15.00;10.33;;;;;;;;;;4989333;28;20191;-84
2023/12/17 05:51:27;;;;;;;14.33;9.43;;;;;;;;;;4979753;28;20678;-83
2023/12/17 05:53:53;;;;;;;13.53;10.53;;;;;;;;;;4978658;28;20192;-83
2023/12/17 05:56:19;;;;;;;17.67;11.23;;;;;;;;;;4994615;28;20191;-84
2023/12/17 05:58:45;;;;;;;14.37;10.13;;;;;;;;;;4993321;28;20269;-84
2023/12/17 06:01:12;;;;;;;13.27;9.80;;;;;;;;;;4970807;28;20303;-84
2023/12/17 06:03:38;;;;;;;17.87;11.83;;;;;;;;;;4993023;28;20192;-84
2023/12/17 06:06:04;;;;;;;17.57;12.10;;;;;;;;;;4991461;28;20236;-84
2023/12/17 06:08:30;;;;;;;17.53;12.20;;;;;;;;;;4971119;28;20535;-83
2023/12/17 06:10:56;;;;;;;19.40;12.77;;;;;;;;;;4971149;28;20212;-84
2023/12/17 06:13:22;;;;;;;16.87;12.33;;;;;;;;;;4987841;28;20210;-84
2023/12/17 06:15:48;;;;;;;17.87;11.70;;;;;;;;;;4988070;28;20712;-84
2023/12/17 06:18:16;;;;;;;16.83;12.03;;;;;;;;;;4970238;28;20238;-84
2023/12/17 06:20:43;;;;;;;15.47;10.40;;;;;;;;;;4987107;28;20222;-84
2023/12/17 06:23:11;;;;;;;13.83;10.20;;;;;;;;;;4967304;28;20202;-84
2023/12/17 06:25:37;;;;;;;16.17;11.23;;;;;;;;;;4988866;28;20457;-84
2023/12/17 06:28:04;;;;;;;13.23;10.30;;;;;;;;;;4974598;28;20640;-84
2023/12/17 06:30:32;;;;;;;15.20;11.10;;;;;;;;;;4968624;28;20699;-83
2023/12/17 06:32:59;;;;;;;16.23;10.63;;;;;;;;;;4969443;28;20188;-84
2023/12/17 06:35:25;;;;;;;14.30;10.40;;;;;;;;;;4973496;28;20633;-84
2023/12/17 06:37:51;;;;;;;13.43;10.30;;;;;;;;;;4967043;28;20703;-84
2023/12/17 06:40:18;;;;;;;18.27;11.00;;;;;;;;;;4960935;28;20232;-83
2023/12/17 06:42:44;;;;;;;14.60;10.37;;;;;;;;;;4966761;28;20363;-84
2023/12/17 06:45:10;;;;;;;18.67;11.03;;;;;;;;;;4985044;28;20183;-84
2023/12/17 06:47:36;;;;;;;14.43;10.67;;;;;;;;;;4970637;28;20599;-84
2023/12/17 06:50:02;;;;;;;15.17;10.20;;;;;;;;;;4954932;28;20212;-84
2023/12/17 06:52:28;;;;;;;21.07;11.87;;;;;;;;;;4971118;28;20196;-84
2023/12/17 06:54:54;;;;;;;15.23;10.53;;;;;;;;;;4968410;28;20724;-84
2023/12/17 06:57:20;;;;;;;16.10;11.50;;;;;;;;;;4973873;28;20216;-83
2023/12/17 06:59:46;;;;;;;16.60;11.27;;;;;;;;;;4990129;28;20211;-84
2023/12/17 07:02:13;;;;;;;15.67;10.47;;;;;;;;;;4970541;28;20196;-84
2023/12/17 07:04:39;;;;;;;16.37;11.77;;;;;;;;;;4969698;28;20207;-83
2023/12/17 07:07:05;;;;;;;18.77;13.00;;;;;;;;;;4991211;28;20192;-84
2023/12/17 07:09:31;;;;;;;16.87;12.03;;;;;;;;;;4962647;28;20267;-83
2023/12/17 07:11:57;;;;;;;19.00;11.87;;;;;;;;;;4963381;28;20192;-83
2023/12/17 07:14:23;;;;;;;18.50;11.93;;;;;;;;;;4991179;28;20196;-84
2023/12/17 07:16:49;;;;;;;18.13;12.63;;;;;;;;;;4975877;28;20203;-85
2023/12/17 07:19:15;;;;;;;18.37;12.37;;;;;;;;;;4978182;28;20339;-83
2023/12/17 07:21:41;;;;;;;18.77;11.87;;;;;;;;;;4984379;28;20187;-84
2023/12/17 07:24:08;;;;;;;18.23;13.50;;;;;;;;;;4966690;28;20200;-83
2023/12/17 07:26:34;;;;;;;18.17;13.27;;;;;;;;;;4975588;28;20194;-84
2023/12/17 07:29:00;;;;;;;18.13;12.73;;;;;;;;;;4977786;28;20644;-86
2023/12/17 07:31:26;;;;;;;17.87;12.50;;;;;;;;;;4995503;28;20183;-85
2023/12/17 07:33:52;;;;;;;17.40;12.37;;;;;;;;;;4996053;28;20553;-84
2023/12/17 07:36:19;;;;;;;18.27;11.70;;;;;;;;;;4982793;28;20184;-83
2023/12/17 07:38:45;;;;;;;15.70;12.10;;;;;;;;;;4981621;28;20269;-84
2023/12/17 07:41:11;;;;;;;22.03;13.67;;;;;;;;;;4975065;28;20745;-84
2023/12/17 07:43:37;;;;;;;19.30;13.03;;;;;;;;;;4977958;28;20271;-86
2023/12/17 07:46:03;;;;;;;23.03;14.37;;;;;;;;;;4990575;28;20243;-84
2023/12/17 07:48:29;;;;;;;20.20;12.77;;;;;;;;;;4979934;28;20187;-78
2023/12/17 07:50:56;;;;;;;17.40;12.63;;;;;;;;;;4993337;28;20204;-78
2023/12/17 07:53:23;;;;;;;16.87;11.83;;;;;;;;;;4986260;28;20542;-80
2023/12/17 07:55:50;;;;;;;18.03;11.80;;;;;;;;;;4991309;28;20620;-79
2023/12/17 07:58:16;;;;;;;16.43;10.87;;;;;;;;;;4988343;28;20203;-76
2023/12/17 08:00:43;;;;;;;14.00;10.27;;;;;;;;;;4968299;28;20219;-76
2023/12/17 08:03:09;;;;;;;17.60;11.80;;;;;;;;;;4990447;28;20676;-76
2023/12/17 08:05:35;;;;;;;19.00;11.77;;;;;;;;;;4988895;28;20172;-76
2023/12/17 08:08:02;;;;;;;17.20;11.97;;;;;;;;;;4990660;28;20676;-78
2023/12/17 08:10:28;;;;;;;27.27;15.13;;;;;;;;;;4988520;28;20214;-74
2023/12/17 08:12:55;;;;;;;25.23;14.90;;;;;;;;;;4985967;28;20255;-74
2023/12/17 08:15:21;;;;;;;19.70;12.67;;;;;;;;;;4986326;28;20674;-76
2023/12/17 08:17:47;;;;;;;19.90;12.27;;;;;;;;;;4989847;28;20486;-75
2023/12/17 08:20:13;;;;;;;17.87;12.13;;;;;;;;;;4984686;28;20209;-77
2023/12/17 08:22:39;;;;;;;17.47;11.73;;;;;;;;;;5002536;28;20230;-77
2023/12/17 08:25:06;;;;;;;18.23;12.17;;;;;;;;;;4986267;28;20180;-77
2023/12/17 08:27:32;;;;;;;17.03;12.20;;;;;;;;;;4985423;28;20196;-77
2023/12/17 08:29:59;;;;;;;15.73;12.20;;;;;;;;;;5000476;28;20569;-77
2023/12/17 08:32:31;;;;;;;14.90;11.10;;;;;;;;;;4990074;28;20237;-77
2023/12/17 08:34:59;;;;;;;17.03;11.37;;;;;;;;;;4967385;28;20240;-77
2023/12/17 08:37:26;;;;;;;19.83;12.40;;;;;;;;;;4983032;28;20233;-77
2023/12/17 08:39:56;;;;;;;18.87;13.20;;;;;;;;;;4982120;28;20215;-77
2023/12/17 08:42:23;;;;;;;17.77;12.27;;;;;;;;;;4982975;28;20250;-77
2023/12/17 08:44:49;;;;;;;21.13;12.57;;;;;;;;;;4981657;28;20184;-78
2023/12/17 08:47:16;;;;;;;17.60;12.30;;;;;;;;;;4989461;28;20203;-77
2023/12/17 08:49:42;;;;;;;18.13;12.00;;;;;;;;;;4972634;28;20215;-75
2023/12/17 08:52:08;;;;;;;16.23;11.57;;;;;;;;;;4988003;28;20195;-82
2023/12/17 08:54:35;;;;;;;17.00;11.70;;;;;;;;;;4965627;28;20202;-78
2023/12/17 08:57:01;;;;;;;16.07;12.03;;;;;;;;;;4988715;28;20195;-77
2023/12/17 08:59:27;;;;;;;18.07;12.13;;;;;;;;;;4988006;28;20226;-78
2023/12/17 09:01:53;;;;;;;18.87;12.20;;;;;;;;;;4987210;28;20274;-78
2023/12/17 09:04:19;;;;;;;27.60;16.63;;;;;;;;;;4979677;28;20242;-77
2023/12/17 09:06:46;;;;;;;23.17;15.13;;;;;;;;;;4982762;28;20188;-78
2023/12/17 09:09:12;;;;;;;23.20;16.17;;;;;;;;;;4987250;28;20207;-78
2023/12/17 09:11:38;;;;;;;21.33;13.97;;;;;;;;;;4983058;28;20551;-78
2023/12/17 09:14:05;;;;;;;20.83;13.50;;;;;;;;;;4983870;28;20546;-78
2023/12/17 09:16:31;;;;;;;20.70;13.73;;;;;;;;;;4985037;28;20347;-78
2023/12/17 09:18:57;;;;;;;27.03;15.53;;;;;;;;;;4984877;28;20212;-78
2023/12/17 09:21:24;;;;;;;36.37;19.37;;;;;;;;;;4985982;28;20183;-78
2023/12/17 09:23:51;;;;;;;33.90;18.97;;;;;;;;;;4985277;28;20180;-78
2023/12/17 09:26:18;;;;;;;23.80;14.90;;;;;;;;;;4987012;28;21040;-78
2023/12/17 09:28:44;;;;;;;21.43;13.43;;;;;;;;;;4983749;28;20184;-78
2023/12/17 09:31:11;;;;;;;19.40;12.73;;;;;;;;;;4985349;28;20318;-78
2023/12/17 09:33:38;;;;;;;17.53;12.00;;;;;;;;;;4986109;28;20199;-78
2023/12/17 09:36:05;;;;;;;23.97;15.73;;;;;;;;;;4987237;28;20184;-78
2023/12/17 09:38:31;;;;;;;28.20;15.53;;;;;;;;;;4985256;28;20258;-78
2023/12/17 09:40:57;;;;;;;25.10;15.50;;;;;;;;;;4984983;28;20321;-78
2023/12/17 09:43:24;;;;;;;33.50;18.03;;;;;;;;;;4969662;28;20179;-78
2023/12/17 09:45:51;;;;;;;23.03;14.27;;;;;;;;;;4986596;28;20183;-78
2023/12/17 09:48:18;;;;;;;30.20;16.63;;;;;;;;;;4986045;28;20191;-78
2023/12/17 09:50:44;;;;;;;23.90;14.60;;;;;;;;;;4986170;28;20200;-78
2023/12/17 09:53:10;;;;;;;22.87;14.07;;;;;;;;;;4969815;28;20278;-78
2023/12/17 09:55:37;;;;;;;29.20;16.20;;;;;;;;;;4986910;28;20234;-78
2023/12/17 09:58:04;;;;;;;20.23;12.83;;;;;;;;;;4986071;28;20242;-78
2023/12/17 10:00:31;;;;;;;19.97;13.50;;;;;;;;;;4984248;28;20208;-78
2023/12/17 10:03:04;;;;;;;18.60;12.60;;;;;;;;;;4985980;28;20192;-78
2023/12/17 10:05:30;;;;;;;18.00;13.00;;;;;;;;;;4987181;28;20250;-78
2023/12/17 10:07:56;;;;;;;17.50;13.17;;;;;;;;;;4983689;28;20676;-78
2023/12/17 10:10:23;;;;;;;19.03;13.70;;;;;;;;;;4984908;28;20244;-78
2023/12/17 10:12:50;;;;;;;17.23;13.20;;;;;;;;;;4985460;28;20199;-78
2023/12/17 10:15:18;;;;;;;19.53;12.87;;;;;;;;;;4983890;28;20558;-77
2023/12/17 10:17:44;;;;;;;22.77;13.03;;;;;;;;;;4985983;28;20496;-78
2023/12/17 10:20:10;;;;;;;17.30;12.87;;;;;;;;;;4984332;28;20610;-78
2023/12/17 10:22:36;;;;;;;20.50;12.90;;;;;;;;;;4959997;28;20191;-78
2023/12/17 10:25:03;;;;;;;19.30;12.53;;;;;;;;;;4968733;28;20233;-78
2023/12/17 10:27:30;;;;;;;20.10;12.90;;;;;;;;;;4986734;28;20196;-78
2023/12/17 10:29:56;;;;;;;16.93;12.80;;;;;;;;;;4984899;28;20696;-78
2023/12/17 10:32:28;;;;;;;16.50;12.50;;;;;;;;;;4985283;28;20290;-78
2023/12/17 10:34:54;;;;;;;16.77;12.23;;;;;;;;;;4989877;28;20232;-78
2023/12/17 10:37:21;;;;;;;20.37;13.77;;;;;;;;;;4988683;28;20810;-78
2023/12/17 10:39:53;;;;;;;17.40;13.47;;;;;;;;;;4990057;28;20204;-78
2023/12/17 10:42:20;;;;;;;18.20;12.67;;;;;;;;;;4987480;28;20188;-78
2023/12/17 10:44:47;;;;;;;18.97;12.97;;;;;;;;;;4988108;28;20184;-78
2023/12/17 10:47:15;;;;;;;21.87;13.27;;;;;;;;;;4994926;28;20203;-78
2023/12/17 10:49:42;;;;;;;20.70;13.60;;;;;;;;;;4979263;28;20208;-78
2023/12/17 10:52:08;;;;;;;25.53;14.70;;;;;;;;;;4988760;28;20247;-78
2023/12/17 10:54:34;;;;;;;20.27;14.47;;;;;;;;;;4988399;28;20188;-78
2023/12/17 10:57:02;;;;;;;16.30;12.73;;;;;;;;;;4987182;28;20241;-78
2023/12/17 10:59:31;;;;;;;18.70;13.00;;;;;;;;;;4986630;28;20249;-78
2023/12/17 11:01:58;;;;;;;21.57;13.17;;;;;;;;;;4987335;28;20342;-78
2023/12/17 11:04:24;;;;;;;17.50;12.03;;;;;;;;;;4971944;28;20489;-78
2023/12/17 11:06:51;;;;;;;17.10;11.43;;;;;;;;;;4988966;28;20345;-77
2023/12/17 11:09:17;;;;;;;18.83;12.63;;;;;;;;;;4961773;28;20247;-78
2023/12/17 11:11:43;;;;;;;17.60;12.17;;;;;;;;;;4987482;28;20195;-79
2023/12/17 11:14:13;;;;;;;17.83;11.80;;;;;;;;;;4988726;28;20196;-80
2023/12/17 11:16:39;;;;;;;16.73;12.27;;;;;;;;;;4988229;28;20187;-78
2023/12/17 11:19:05;;;;;;;17.53;12.57;;;;;;;;;;4987683;28;20679;-78
2023/12/17 11:21:34;;;;;;;17.53;12.53;;;;;;;;;;4987307;28;20191;-79
2023/12/17 11:24:00;;;;;;;18.83;12.63;;;;;;;;;;4988424;28;20891;-80
2023/12/17 11:26:26;;;;;;;18.70;12.30;;;;;;;;;;4970149;28;20231;-80
2023/12/17 11:28:53;;;;;;;20.77;13.80;;;;;;;;;;4959184;28;20203;-82
2023/12/17 11:31:19;;;;;;;18.83;12.80;;;;;;;;;;4989994;28;20275;-79
2023/12/17 11:33:45;;;;;;;18.87;12.50;;;;;;;;;;4993828;28;20191;-78
2023/12/17 11:36:16;;;;;;;19.57;12.50;;;;;;;;;;4992134;28;20274;-82
2023/12/17 11:38:44;;;;;;;20.17;12.93;;;;;;;;;;4971387;28;20318;-77
2023/12/17 11:41:10;;;;;;;20.50;13.33;;;;;;;;;;4989733;28;20211;-81
2023/12/17 11:43:37;;;;;;;16.90;12.30;;;;;;;;;;4989836;28;20171;-80
2023/12/17 11:46:03;;;;;;;17.07;11.70;;;;;;;;;;4971321;28;20286;-81
2023/12/17 11:48:30;;;;;;;20.83;13.23;;;;;;;;;;4990071;28;20183;-78
2023/12/17 11:50:57;;;;;;;14.67;12.07;;;;;;;;;;4988344;28;20207;-79
2023/12/17 11:53:25;;;;;;;16.23;11.10;;;;;;;;;;4988693;28;20191;-78
2023/12/17 11:56:07;;;;;;;19.40;11.97;;;;;;;;;;4989019;28;20688;-78
2023/12/17 11:58:44;;;;;;;16.07;11.53;;;;;;;;;;5002678;28;20592;-78
2023/12/17 12:01:12;;;;;;;17.13;12.07;;;;;;;;;;4986811;28;20223;-79
2023/12/17 12:03:39;;;;;;;16.67;11.50;;;;;;;;;;4990045;28;20186;-78
2023/12/17 12:06:09;;;;;;;16.47;11.50;;;;;;;;;;4983170;28;20549;-78
2023/12/17 12:08:35;;;;;;;20.10;11.60;;;;;;;;;;4988233;28;20222;-78
2023/12/17 12:11:02;;;;;;;19.60;12.00;;;;;;;;;;4987719;28;20240;-78
2023/12/17 12:13:29;;;;;;;18.07;11.07;;;;;;;;;;4972353;28;20306;-78
2023/12/17 12:15:59;;;;;;;14.73;11.40;;;;;;;;;;4986262;28;20196;-80
2023/12/17 12:18:25;;;;;;;15.97;11.73;;;;;;;;;;4985809;28;20218;-78
2023/12/17 12:20:53;;;;;;;16.63;11.20;;;;;;;;;;4985676;28;20607;-78
2023/12/17 12:23:19;;;;;;;16.57;10.97;;;;;;;;;;4969203;28;20183;-79
2023/12/17 12:25:47;;;;;;;15.17;10.83;;;;;;;;;;4987832;28;20181;-79
2023/12/17 12:28:20;;;;;;;14.07;10.17;;;;;;;;;;4990183;28;20192;-82
2023/12/17 12:30:47;;;;;;;15.87;11.30;;;;;;;;;;4990465;28;20361;-79
2023/12/17 12:33:13;;;;;;;16.23;10.50;;;;;;;;;;4987151;28;20188;-79
2023/12/17 12:35:44;;;;;;;11.43;9.87;;;;;;;;;;4990223;28;20560;-80
2023/12/17 12:38:17;;;;;;;15.53;9.53;;;;;;;;;;4990454;28;20212;-79
2023/12/17 12:40:43;;;;;;;12.20;9.37;;;;;;;;;;4990136;28;20255;-85
2023/12/17 12:43:09;;;;;;;16.03;10.07;;;;;;;;;;4975195;28;20719;-80
2023/12/17 12:45:35;;;;;;;14.67;10.03;;;;;;;;;;4986926;28;20188;-77
2023/12/17 12:48:01;;;;;;;16.73;9.83;;;;;;;;;;4971405;28;20205;-77
2023/12/17 12:50:27;;;;;;;13.60;9.17;;;;;;;;;;4986045;28;20212;-77
2023/12/17 12:52:53;;;;;;;18.00;12.87;;;;;;;;;;4990924;28;20196;-77
2023/12/17 12:55:19;;;;;;;14.07;10.33;;;;;;;;;;4988731;28;20219;-77
2023/12/17 12:57:46;;;;;;;15.13;9.77;;;;;;;;;;4988188;28;20223;-77
2023/12/17 13:00:12;;;;;;;14.30;9.53;;;;;;;;;;4981685;28;20215;-77
2023/12/17 13:02:38;;;;;;;14.33;9.17;;;;;;;;;;4971150;28;20191;-77
2023/12/17 13:05:04;;;;;;;17.23;10.20;;;;;;;;;;4989600;28;20588;-77
2023/12/17 13:07:32;;;;;;;13.67;9.30;;;;;;;;;;4983895;28;20679;-77
2023/12/17 13:10:00;;;;;;;14.23;9.33;;;;;;;;;;4986867;28;20343;-77
2023/12/17 13:12:26;;;;;;;12.47;8.90;;;;;;;;;;4988653;28;20179;-77
2023/12/17 13:14:52;;;;;;;12.43;9.23;;;;;;;;;;4988639;28;20561;-78
2023/12/17 13:17:18;;;;;;;12.80;9.47;;;;;;;;;;4985816;28;20199;-77
2023/12/17 13:19:44;;;;;;;17.70;9.97;;;;;;;;;;4988019;28;20220;-78
2023/12/17 13:22:10;;;;;;;12.73;9.80;;;;;;;;;;4990096;28;20188;-78
2023/12/17 13:24:36;;;;;;;13.30;9.17;;;;;;;;;;4987442;28;20561;-78
2023/12/17 13:27:02;;;;;;;13.90;10.20;;;;;;;;;;4983629;28;20188;-77
2023/12/17 13:29:29;;;;;;;13.43;9.87;;;;;;;;;;4988287;28;20207;-77
2023/12/17 13:31:55;;;;;;;12.00;9.90;;;;;;;;;;4989443;28;20191;-77
2023/12/17 13:34:22;;;;;;;13.53;9.90;;;;;;;;;;4984265;28;20648;-77
2023/12/17 13:36:49;;;;;;;16.03;9.77;;;;;;;;;;4985590;28;20183;-77
2023/12/17 13:39:15;;;;;;;12.73;9.47;;;;;;;;;;4991192;28;20211;-77
2023/12/17 13:41:41;;;;;;;13.50;9.63;;;;;;;;;;4991622;28;20192;-77
2023/12/17 13:44:09;;;;;;;14.87;9.47;;;;;;;;;;4989444;28;20191;-77
2023/12/17 13:46:36;;;;;;;13.77;9.37;;;;;;;;;;4989677;28;20171;-78
2023/12/17 13:49:03;;;;;;;12.93;8.80;;;;;;;;;;4986462;28;20250;-78
2023/12/17 13:51:29;;;;;;;12.10;9.53;;;;;;;;;;4988929;28;20223;-77
2023/12/17 13:53:55;;;;;;;14.30;9.07;;;;;;;;;;4981301;28;20187;-83
2023/12/17 13:56:21;;;;;;;12.80;9.80;;;;;;;;;;4967391;28;20286;-76
2023/12/17 13:58:48;;;;;;;12.97;10.00;;;;;;;;;;4971758;28;20995;-76
2023/12/17 14:01:14;;;;;;;17.00;11.43;;;;;;;;;;4990384;28;20219;-76
2023/12/17 14:03:40;;;;;;;13.50;9.80;;;;;;;;;;4989558;28;20196;-76
2023/12/17 14:06:13;;;;;;;14.17;10.07;;;;;;;;;;4987555;28;20287;-76
2023/12/17 14:08:40;;;;;;;14.40;9.87;;;;;;;;;;4983851;28;20192;-76
2023/12/17 14:11:06;;;;;;;14.07;10.47;;;;;;;;;;4987863;28;20294;-76
2023/12/17 14:13:32;;;;;;;15.87;9.97;;;;;;;;;;4991343;28;20553;-77
2023/12/17 14:15:59;;;;;;;15.10;10.50;;;;;;;;;;4993397;28;20727;-77
2023/12/17 14:18:25;;;;;;;14.80;9.63;;;;;;;;;;4997261;28;20286;-77